Time;durP1;ratioP1;P1;durP2;ratioP2;P2;SDS_P1;SDS_P2;PMS_P1;PMS_P2;Temp;Humidity;BMP_temperature;BMP_pressure;BME280_temperature;BME280_humidity;BME280_pressure;Samples;Min_cycle;Max_cycle;Signal;HPM_P1;HPM_P2
2022/12/26 00:01:21;;;;;;;13.90;9.20;;;8.10;99.90;;;;;;1872213;77;21177;-79
2022/12/26 00:04:13;;;;;;;12.30;9.18;;;8.10;99.90;;;;;;1871982;75;21131;-79
2022/12/26 00:07:05;;;;;;;10.50;8.90;;;8.20;99.90;;;;;;1894344;75;21164;-81
2022/12/26 00:09:57;;;;;;;11.85;9.55;;;8.10;99.90;;;;;;1887352;75;21098;-79
2022/12/26 00:12:48;;;;;;;10.65;8.88;;;8.20;99.90;;;;;;1883643;75;21554;-79
2022/12/26 00:15:42;;;;;;;13.20;9.40;;;8.20;99.90;;;;;;1882533;75;21160;-79
2022/12/26 00:18:33;;;;;;;12.07;9.15;;;8.20;99.90;;;;;;1882888;75;21086;-79
2022/12/26 00:21:26;;;;;;;13.72;9.98;;;8.20;99.90;;;;;;1885740;75;21110;-79
2022/12/26 00:24:17;;;;;;;13.68;9.15;;;8.20;99.90;;;;;;1885618;75;21137;-80
2022/12/26 00:27:09;;;;;;;10.65;9.13;;;8.20;99.90;;;;;;1874071;75;21090;-80
2022/12/26 00:30:00;;;;;;;10.43;8.65;;;8.20;99.90;;;;;;1892881;74;21162;-80
2022/12/26 00:32:52;;;;;;;12.10;9.48;;;8.10;99.90;;;;;;1870264;75;21162;-80
2022/12/26 00:35:43;;;;;;;12.90;8.88;;;8.10;99.90;;;;;;1885615;75;21171;-80
2022/12/26 00:38:35;;;;;;;10.35;9.00;;;8.10;99.90;;;;;;1881836;75;22121;-80
2022/12/26 00:41:27;;;;;;;9.58;8.50;;;8.10;99.90;;;;;;1881931;75;21067;-80
2022/12/26 00:44:18;;;;;;;11.50;9.38;;;8.00;99.90;;;;;;1886492;75;21168;-80
2022/12/26 00:47:10;;;;;;;10.43;8.58;;;8.00;99.90;;;;;;1889321;75;21075;-79
2022/12/26 00:50:01;;;;;;;12.82;9.53;;;8.00;99.90;;;;;;1884194;74;21055;-79
2022/12/26 00:52:55;;;;;;;11.43;9.30;;;7.90;99.90;;;;;;1881573;75;21111;-80
2022/12/26 00:55:47;;;;;;;9.83;8.75;;;7.90;99.90;;;;;;1885148;75;21071;-81
2022/12/26 00:58:39;;;;;;;11.78;8.53;;;7.90;99.90;;;;;;1886596;75;21110;-80
2022/12/26 01:01:31;;;;;;;11.25;8.70;;;7.90;99.90;;;;;;1887493;75;21107;-80
2022/12/26 01:04:22;;;;;;;13.22;9.50;;;7.90;99.90;;;;;;1883239;75;21531;-80
2022/12/26 01:07:14;;;;;;;12.20;9.20;;;7.90;99.90;;;;;;1880552;75;21674;-80
2022/12/26 01:10:07;;;;;;;12.55;9.45;;;7.90;99.90;;;;;;1890960;75;21119;-79
2022/12/26 01:12:58;;;;;;;10.32;8.78;;;7.90;99.90;;;;;;1890001;75;21574;-80
2022/12/26 01:15:51;;;;;;;12.73;8.73;;;7.80;99.90;;;;;;1893661;75;21143;-80
2022/12/26 01:18:43;;;;;;;13.30;8.85;;;7.80;99.90;;;;;;1898053;75;21343;-80
2022/12/26 01:21:34;;;;;;;10.08;8.48;;;7.70;99.90;;;;;;1893887;75;21099;-79
2022/12/26 01:24:26;;;;;;;11.33;8.60;;;7.70;99.90;;;;;;1888261;75;21102;-79
2022/12/26 01:27:17;;;;;;;11.22;8.23;;;7.60;99.90;;;;;;1882705;75;21087;-79
2022/12/26 01:30:11;;;;;;;10.80;8.48;;;7.60;99.90;;;;;;1876257;75;21150;-79
2022/12/26 01:33:03;;;;;;;11.57;8.58;;;7.60;99.90;;;;;;1891550;75;21107;-81
2022/12/26 01:35:54;;;;;;;12.47;8.25;;;7.60;99.90;;;;;;1888341;75;21148;-81
2022/12/26 01:38:46;;;;;;;9.78;7.42;;;7.70;99.90;;;;;;1890933;75;21114;-80
2022/12/26 01:41:37;;;;;;;12.55;8.85;;;7.70;99.90;;;;;;1896268;75;21186;-80
2022/12/26 01:44:57;;;;;;;10.10;8.60;;;7.70;99.90;;;;;;1895434;75;21648;-79
2022/12/26 01:47:51;;;;;;;12.82;8.25;;;7.70;99.90;;;;;;1892162;75;21107;-80
2022/12/26 01:50:46;;;;;;;10.50;7.50;;;7.70;99.90;;;;;;1895972;75;21075;-80
2022/12/26 01:53:40;;;;;;;9.63;7.95;;;7.60;99.90;;;;;;1892740;75;21142;-80
2022/12/26 01:56:34;;;;;;;10.60;8.35;;;7.60;99.90;;;;;;1883711;75;21121;-80
2022/12/26 01:59:29;;;;;;;9.98;8.18;;;7.60;99.90;;;;;;1881468;75;21176;-80
2022/12/26 02:02:23;;;;;;;10.58;8.20;;;7.60;99.90;;;;;;1886014;75;21114;-80
2022/12/26 02:05:33;;;;;;;10.15;8.15;;;7.60;99.90;;;;;;1887788;75;21114;-79
2022/12/26 02:08:28;;;;;;;10.18;8.10;;;7.60;99.90;;;;;;1889387;75;21091;-80
2022/12/26 02:11:23;;;;;;;10.65;7.78;;;7.60;99.90;;;;;;1884591;75;21465;-80
2022/12/26 02:16:53;;;;;;;10.30;8.15;;;7.60;99.90;;;;;;1951402;72;22142;-80
2022/12/26 02:19:48;;;;;;;10.25;7.50;;;7.60;99.90;;;;;;1916724;75;21168;-80
2022/12/26 02:23:06;;;;;;;12.13;8.28;;;7.60;99.90;;;;;;1916814;75;21144;-79
2022/12/26 02:26:32;;;;;;;10.63;8.35;;;7.60;99.90;;;;;;1873541;75;21619;-80
2022/12/26 02:29:50;;;;;;;10.48;8.10;;;7.60;99.90;;;;;;1934145;73;21098;-81
2022/12/26 02:32:58;;;;;;;10.13;7.40;;;7.60;99.90;;;;;;1917759;75;21124;-81
2022/12/26 02:36:02;;;;;;;9.18;7.03;;;7.50;99.90;;;;;;1917278;75;21209;-79
2022/12/26 02:38:59;;;;;;;8.10;6.87;;;7.30;99.90;;;;;;1917216;75;21168;-79
2022/12/26 02:41:54;;;;;;;8.60;6.92;;;7.20;99.90;;;;;;1877999;76;21126;-79
2022/12/26 03:13:24;;;;;;;7.90;7.00;;;6.70;99.90;;;;;;1903574;75;21046;-80
2022/12/26 03:19:29;;;;;;;7.62;6.45;;;6.70;99.90;;;;;;1917147;75;21145;-80
2022/12/26 03:22:30;;;;;;;7.28;6.42;;;6.70;99.90;;;;;;1895089;75;21175;-80
2022/12/26 03:28:34;;;;;;;7.67;6.03;;;6.60;99.90;;;;;;1894915;75;21160;-79
2022/12/26 03:31:26;;;;;;;6.65;5.85;;;6.60;99.90;;;;;;1895037;75;21156;-79
2022/12/26 03:34:17;;;;;;;6.70;6.00;;;6.50;99.90;;;;;;1900185;75;21204;-79
2022/12/26 03:37:33;;;;;;;7.45;6.30;;;6.50;99.90;;;;;;1884279;76;21375;-79
2022/12/26 04:19:26;;;;;;;8.25;6.45;;;6.80;99.90;;;;;;1756047;76;21099;-79
2022/12/26 04:44:38;;;;;;;8.48;6.53;;;6.90;99.90;;;;;;1905474;75;21063;-79
2022/12/26 04:47:31;;;;;;;8.23;6.20;;;6.90;99.90;;;;;;1904380;75;21114;-80
2022/12/26 04:50:23;;;;;;;7.72;6.35;;;6.90;99.90;;;;;;1884275;75;21126;-78
2022/12/26 04:53:15;;;;;;;8.48;6.15;;;7.00;99.90;;;;;;1892753;74;21168;-79
2022/12/26 04:56:09;;;;;;;10.05;6.80;;;7.00;99.90;;;;;;1897979;74;21039;-79
2022/12/26 04:59:01;;;;;;;12.18;6.67;;;7.00;99.90;;;;;;1903782;74;21172;-79
2022/12/26 05:11:26;;;;;;;9.53;6.65;;;7.10;99.90;;;;;;1926280;74;21102;-81
2022/12/26 05:14:17;;;;;;;7.92;6.58;;;7.10;99.90;;;;;;1903942;74;21168;-80
2022/12/26 05:29:47;;;;;;;6.50;5.65;;;6.80;99.90;;;;;;1915247;74;21127;-80
2022/12/26 05:38:27;;;;;;;7.37;5.78;;;6.60;99.90;;;;;;1956656;72;22868;-81
2022/12/26 05:41:19;;;;;;;7.95;6.12;;;6.50;99.90;;;;;;1896702;74;21140;-80
2022/12/26 05:44:11;;;;;;;6.37;5.72;;;6.40;99.90;;;;;;1898298;75;21110;-80
2022/12/26 05:47:02;;;;;;;7.28;5.67;;;6.40;99.90;;;;;;1898462;75;21051;-80
2022/12/26 05:49:53;;;;;;;6.65;5.92;;;6.40;99.90;;;;;;1894657;75;21120;-79
2022/12/26 05:52:45;;;;;;;7.00;6.30;;;6.40;99.90;;;;;;1894742;75;21135;-80
2022/12/26 05:55:37;;;;;;;7.17;5.50;;;6.30;99.90;;;;;;1896674;75;21129;-80
2022/12/26 05:58:28;;;;;;;7.67;5.87;;;6.30;99.90;;;;;;1898891;75;21059;-80
2022/12/26 06:01:21;;;;;;;6.47;5.78;;;6.30;99.90;;;;;;1894617;75;21150;-80
2022/12/26 06:04:12;;;;;;;7.30;6.15;;;6.30;99.90;;;;;;1895052;75;21183;-80
2022/12/26 06:07:04;;;;;;;6.70;6.00;;;6.20;99.90;;;;;;1895733;75;21196;-82
2022/12/26 06:09:55;;;;;;;6.95;6.25;;;6.30;99.90;;;;;;1880614;76;21130;-79
2022/12/26 06:12:46;;;;;;;8.15;5.75;;;6.30;99.90;;;;;;1896132;75;21160;-80
2022/12/26 06:15:40;;;;;;;7.85;6.40;;;6.30;99.90;;;;;;1895248;75;21083;-80
2022/12/26 06:18:31;;;;;;;8.95;6.15;;;6.30;99.90;;;;;;1895292;75;21118;-80
2022/12/26 06:21:24;;;;;;;7.62;6.65;;;6.30;99.90;;;;;;1897844;75;21106;-80
2022/12/26 06:24:15;;;;;;;7.95;6.25;;;6.20;99.90;;;;;;1884325;75;21075;-79
2022/12/26 06:27:06;;;;;;;7.65;6.55;;;6.10;99.90;;;;;;1893859;75;21103;-79
2022/12/26 06:29:58;;;;;;;7.80;6.35;;;6.20;99.90;;;;;;1891070;75;21149;-79
2022/12/26 06:32:49;;;;;;;8.80;6.70;;;6.10;99.90;;;;;;1884416;76;21204;-79
2022/12/26 06:35:42;;;;;;;9.65;7.00;;;6.10;99.90;;;;;;1900461;75;21114;-79
2022/12/26 06:38:33;;;;;;;8.93;6.65;;;6.10;99.90;;;;;;1895123;75;21079;-80
2022/12/26 06:41:26;;;;;;;8.25;6.65;;;6.10;99.90;;;;;;1895095;75;21135;-79
2022/12/26 06:44:17;;;;;;;8.53;6.47;;;6.00;99.90;;;;;;1894764;75;21125;-80
2022/12/26 06:47:09;;;;;;;7.60;6.12;;;6.00;99.90;;;;;;1899985;75;21137;-80
2022/12/26 06:50:01;;;;;;;7.62;6.33;;;6.00;99.90;;;;;;1883713;76;21176;-79
2022/12/26 06:52:52;;;;;;;6.72;6.00;;;5.90;99.90;;;;;;1905887;75;21090;-80
2022/12/26 06:55:44;;;;;;;9.75;6.33;;;5.90;99.90;;;;;;1905954;75;21538;-80
2022/12/26 06:58:37;;;;;;;9.25;6.58;;;5.90;99.90;;;;;;1901102;75;21107;-80
2022/12/26 07:01:30;;;;;;;8.03;6.85;;;5.90;99.90;;;;;;1883684;76;21506;-79
2022/12/26 07:04:23;;;;;;;11.30;7.08;;;6.00;99.90;;;;;;1893385;75;21098;-81
2022/12/26 07:07:14;;;;;;;8.60;6.67;;;6.00;99.90;;;;;;1886553;75;21123;-81
2022/12/26 07:10:07;;;;;;;7.97;6.47;;;6.00;99.90;;;;;;1897043;75;21191;-80
2022/12/26 07:12:58;;;;;;;8.75;7.28;;;6.00;99.90;;;;;;1897894;75;21047;-80
2022/12/26 07:15:49;;;;;;;10.00;7.60;;;6.10;99.90;;;;;;1885307;75;21113;-80
2022/12/26 07:18:41;;;;;;;10.28;7.17;;;6.00;99.90;;;;;;1893520;75;21210;-80
2022/12/26 07:21:32;;;;;;;9.95;7.10;;;6.00;99.90;;;;;;1891589;75;21161;-79
2022/12/26 07:24:25;;;;;;;8.98;7.08;;;6.00;99.90;;;;;;1900744;75;21121;-80
2022/12/26 07:27:17;;;;;;;9.38;7.97;;;6.00;99.90;;;;;;1905383;75;21106;-81
2022/12/26 07:30:11;;;;;;;8.88;7.08;;;6.00;99.90;;;;;;1905351;75;21114;-79
2022/12/26 07:33:02;;;;;;;9.88;6.83;;;6.00;99.90;;;;;;1871296;75;21106;-79
2022/12/26 07:35:54;;;;;;;7.80;6.50;;;6.10;99.90;;;;;;1871794;77;21067;-80
2022/12/26 07:38:46;;;;;;;8.13;6.53;;;6.20;99.90;;;;;;1890142;74;21207;-80
2022/12/26 07:44:57;;;;;;;8.15;6.37;;;6.30;99.90;;;;;;1918118;74;21111;-79
2022/12/26 07:47:48;;;;;;;6.97;5.85;;;6.30;99.90;;;;;;1904113;74;21118;-80
2022/12/26 07:50:40;;;;;;;9.03;6.20;;;6.30;99.90;;;;;;1905951;74;21118;-80
2022/12/26 07:53:31;;;;;;;8.00;5.62;;;6.40;99.90;;;;;;1908151;74;21094;-81
2022/12/26 07:56:23;;;;;;;7.53;6.15;;;6.30;99.90;;;;;;1894124;74;21086;-80
2022/12/26 07:59:16;;;;;;;6.55;5.00;;;6.30;99.90;;;;;;1915474;74;21208;-79
2022/12/26 08:02:09;;;;;;;6.75;6.05;;;6.20;99.90;;;;;;1915309;74;21098;-79
2022/12/26 08:05:01;;;;;;;5.37;4.55;;;6.10;99.90;;;;;;1909989;74;21193;-79
2022/12/26 08:07:53;;;;;;;6.62;5.40;;;6.10;99.90;;;;;;1914716;74;21647;-79
2022/12/26 08:10:44;;;;;;;6.55;5.65;;;6.10;99.90;;;;;;1921392;74;21106;-80
2022/12/26 08:13:36;;;;;;;6.03;5.42;;;6.20;99.90;;;;;;1904110;74;21109;-80
2022/12/26 08:16:28;;;;;;;7.20;6.03;;;6.20;99.90;;;;;;1908165;74;21108;-80
2022/12/26 08:19:20;;;;;;;7.10;6.33;;;6.30;99.90;;;;;;1905077;74;21171;-80
2022/12/26 08:22:12;;;;;;;10.35;8.13;;;6.30;99.90;;;;;;1895915;74;21117;-81
2022/12/26 08:25:05;;;;;;;13.40;10.53;;;6.30;99.90;;;;;;1915148;74;21147;-79
2022/12/26 08:27:57;;;;;;;10.20;6.55;;;6.40;99.90;;;;;;1892903;76;21609;-81
2022/12/26 08:30:49;;;;;;;7.62;5.62;;;6.50;99.90;;;;;;1907382;74;21102;-79
2022/12/26 08:33:40;;;;;;;7.12;5.17;;;6.50;99.90;;;;;;1901528;74;21086;-80
2022/12/26 08:36:32;;;;;;;7.47;5.97;;;6.50;99.90;;;;;;1915419;74;21127;-81
2022/12/26 08:39:23;;;;;;;7.95;4.92;;;6.60;99.90;;;;;;1875462;76;21188;-80
2022/12/26 08:42:15;;;;;;;6.40;5.67;;;6.60;99.90;;;;;;1900673;75;21118;-80
2022/12/26 08:45:08;;;;;;;7.17;6.08;;;6.60;99.90;;;;;;1905909;75;21122;-80
2022/12/26 08:48:01;;;;;;;9.25;6.40;;;6.70;99.90;;;;;;1906160;75;21110;-80
2022/12/26 08:51:01;;;;;;;8.18;6.50;;;6.80;99.90;;;;;;1883798;76;21175;-79
2022/12/26 08:53:54;;;;;;;7.08;6.25;;;6.90;99.90;;;;;;1902397;75;21070;-80
2022/12/26 08:56:46;;;;;;;8.83;6.58;;;7.10;99.90;;;;;;1897514;75;21164;-79
2022/12/26 08:59:36;;;;;;;9.45;6.85;;;7.20;99.90;;;;;;1894859;75;21106;-80
2022/12/26 09:02:28;;;;;;;7.25;5.70;;;7.30;99.90;;;;;;1894487;75;21177;-80
2022/12/26 09:05:20;;;;;;;6.08;5.28;;;7.50;99.90;;;;;;1896043;75;21138;-80
2022/12/26 09:08:12;;;;;;;5.90;5.20;;;7.70;99.90;;;;;;1883935;76;21168;-80
2022/12/26 09:11:05;;;;;;;6.78;5.25;;;7.80;99.90;;;;;;1905809;75;21058;-82
2022/12/26 09:13:58;;;;;;;6.72;4.90;;;7.90;99.90;;;;;;1905434;75;21098;-80
2022/12/26 09:16:50;;;;;;;7.47;5.45;;;8.00;99.90;;;;;;1869332;76;21142;-80
2022/12/26 09:19:42;;;;;;;6.87;5.58;;;8.00;99.90;;;;;;1901428;75;21115;-80
2022/12/26 09:25:49;;;;;;;6.53;5.83;;;8.10;99.90;;;;;;1896742;75;21118;-80
2022/12/26 09:28:41;;;;;;;7.40;5.67;;;8.20;99.90;;;;;;1908817;75;21570;-80
2022/12/26 09:31:35;;;;;;;6.72;5.97;;;8.30;99.90;;;;;;1886430;75;21100;-80
2022/12/26 09:34:26;;;;;;;7.30;6.00;;;8.40;99.90;;;;;;1909948;75;21370;-80
2022/12/26 09:37:18;;;;;;;7.12;6.00;;;8.60;99.90;;;;;;1898093;75;21090;-81
2022/12/26 09:40:15;;;;;;;6.62;5.42;;;8.70;99.90;;;;;;1886231;75;21144;-80
2022/12/26 09:43:12;;;;;;;7.95;5.60;;;8.70;99.90;;;;;;1915242;74;21118;-80
2022/12/26 09:46:10;;;;;;;6.22;5.62;;;8.80;99.90;;;;;;1915104;74;21192;-81
2022/12/26 09:49:03;;;;;;;;;;;9.00;99.90;;;;;;1916137;74;21090;-81
2022/12/26 09:51:56;;;;;;;7.75;6.22;;;9.10;99.90;;;;;;1907987;74;20324;-79
2022/12/26 09:57:33;;;;;;;8.40;6.25;;;9.30;99.90;;;;;;1950595;72;22099;-81
2022/12/26 10:00:27;;;;;;;9.63;5.90;;;9.30;99.90;;;;;;1903800;75;21090;-79
2022/12/26 10:03:19;;;;;;;7.65;6.15;;;9.40;99.90;;;;;;1901815;75;21146;-79
2022/12/26 10:06:15;;;;;;;9.63;7.05;;;9.40;99.90;;;;;;1906216;75;21160;-79
2022/12/26 10:09:19;;;;;;;6.53;5.50;;;9.50;99.90;;;;;;1890353;75;21184;-80
2022/12/26 10:12:21;;;;;;;7.92;5.97;;;9.50;99.90;;;;;;1894656;75;21136;-79
2022/12/26 10:15:46;;;;;;;9.30;7.55;;;9.50;99.90;;;;;;1894772;75;21228;-79
2022/12/26 10:18:41;;;;;;;8.83;6.05;;;9.60;99.90;;;;;;1857373;75;21112;-80
2022/12/26 10:21:37;;;;;;;7.28;6.37;;;9.50;99.90;;;;;;1895976;75;21101;-79
2022/12/26 10:24:32;;;;;;;7.12;5.35;;;9.50;99.90;;;;;;1883851;76;21106;-79
2022/12/26 10:27:24;;;;;;;8.48;5.75;;;9.60;99.90;;;;;;1895748;75;21121;-79
2022/12/26 10:30:20;;;;;;;11.35;9.95;;;9.60;99.90;;;;;;1916915;75;21094;-79
2022/12/26 10:33:15;;;;;;;12.47;9.90;;;9.60;99.90;;;;;;1895058;75;21247;-79
2022/12/26 10:36:09;;;;;;;11.10;8.15;;;9.60;99.90;;;;;;1904109;75;21137;-79
2022/12/26 10:39:03;;;;;;;7.65;5.65;;;9.70;99.90;;;;;;1899853;75;21128;-79
2022/12/26 10:41:57;;;;;;;7.60;6.35;;;9.70;99.90;;;;;;1906440;75;21105;-79
2022/12/26 10:44:48;;;;;;;7.67;6.28;;;9.70;99.90;;;;;;1906362;75;21067;-81
2022/12/26 10:47:41;;;;;;;6.55;5.85;;;9.80;99.90;;;;;;1906600;75;21075;-80
2022/12/26 10:50:35;;;;;;;8.40;6.90;;;9.70;99.90;;;;;;1901848;75;21123;-79
2022/12/26 10:53:26;;;;;;;9.60;6.25;;;9.80;99.90;;;;;;1896728;75;21603;-79
2022/12/26 10:56:19;;;;;;;10.88;6.25;;;9.70;99.90;;;;;;1896778;74;21055;-80
2022/12/26 11:01:52;;;;;;;7.90;6.75;;;9.80;99.90;;;;;;1954672;72;22330;-80
2022/12/26 11:05:06;;;;;;;8.33;6.50;;;9.80;99.90;;;;;;1903055;75;21098;-80
2022/12/26 11:10:51;;;;;;;8.23;6.78;;;10.00;99.90;;;;;;1946734;72;22233;-80
2022/12/26 11:13:45;;;;;;;9.93;7.42;;;10.00;99.90;;;;;;1905894;75;21217;-79
2022/12/26 11:16:40;;;;;;;10.68;8.28;;;10.10;99.90;;;;;;1903720;75;21188;-81
2022/12/26 11:19:34;;;;;;;8.95;7.37;;;10.20;99.90;;;;;;1884188;75;21176;-79
2022/12/26 11:22:28;;;;;;;10.15;7.37;;;10.30;99.90;;;;;;1883902;75;21109;-79
2022/12/26 11:25:23;;;;;;;6.87;6.17;;;10.30;99.90;;;;;;1906155;75;21155;-80
2022/12/26 11:28:27;;;;;;;9.70;7.28;;;10.40;99.90;;;;;;1905924;75;21099;-80
2022/12/26 11:31:25;;;;;;;8.08;6.90;;;10.40;99.90;;;;;;1884118;76;21148;-79
2022/12/26 11:34:20;;;;;;;12.53;6.70;;;10.40;99.90;;;;;;1890507;75;21094;-79
2022/12/26 11:37:24;;;;;;;8.33;6.22;;;10.40;99.90;;;;;;1896319;75;21106;-79
2022/12/26 11:40:21;;;;;;;14.05;7.15;;;10.50;99.90;;;;;;1884959;75;21566;-79
2022/12/26 11:43:16;;;;;;;7.78;6.45;;;10.60;99.90;;;;;;1906234;75;21098;-79
2022/12/26 11:46:07;;;;;;;9.00;6.35;;;10.70;99.90;;;;;;1906420;75;21087;-79
2022/12/26 11:48:59;;;;;;;8.13;6.40;;;10.70;99.90;;;;;;1883813;75;21098;-79
2022/12/26 11:51:52;;;;;;;9.43;6.37;;;10.70;99.90;;;;;;1897077;75;21111;-80
2022/12/26 11:54:51;;;;;;;9.10;6.87;;;10.70;99.90;;;;;;1886330;75;21102;-79
2022/12/26 11:57:43;;;;;;;9.38;7.17;;;10.80;99.90;;;;;;1884145;76;21561;-80
2022/12/26 12:00:37;;;;;;;12.28;8.30;;;10.80;99.90;;;;;;1905929;75;21168;-79
2022/12/26 12:03:31;;;;;;;14.43;8.20;;;10.90;99.90;;;;;;1900762;75;21152;-80
2022/12/26 12:06:40;;;;;;;9.83;7.75;;;10.90;99.90;;;;;;1895802;75;21122;-79
2022/12/26 12:09:35;;;;;;;9.00;6.83;;;11.00;99.90;;;;;;1895074;74;21110;-79
2022/12/26 12:12:30;;;;;;;8.13;6.67;;;11.00;99.90;;;;;;1887771;75;21094;-81
2022/12/26 12:15:24;;;;;;;8.30;7.30;;;11.00;99.90;;;;;;1886941;75;21198;-80
2022/12/26 12:18:19;;;;;;;11.28;9.10;;;11.00;99.90;;;;;;1896951;75;21543;-79
2022/12/26 12:21:15;;;;;;;10.30;7.60;;;11.00;99.90;;;;;;1883799;76;21118;-79
2022/12/26 12:24:44;;;;;;;8.10;6.72;;;11.10;99.90;;;;;;1895140;75;21196;-80
2022/12/26 12:27:39;;;;;;;10.05;6.62;;;11.10;99.90;;;;;;1897856;75;21184;-80
2022/12/26 12:30:36;;;;;;;8.85;6.78;;;11.10;99.90;;;;;;1883909;75;21138;-80
2022/12/26 12:33:34;;;;;;;8.65;6.40;;;11.10;99.90;;;;;;1905601;75;21091;-78
2022/12/26 12:36:29;;;;;;;10.30;6.45;;;11.10;99.90;;;;;;1886238;75;21099;-79
2022/12/26 12:39:23;;;;;;;10.58;6.40;;;11.00;99.90;;;;;;1895940;75;21098;-80
2022/12/26 12:42:23;;;;;;;7.53;6.72;;;11.00;99.90;;;;;;1899219;75;21187;-79
2022/12/26 12:45:29;;;;;;;8.68;6.45;;;10.90;99.90;;;;;;1895847;75;21507;-79
2022/12/26 12:48:42;;;;;;;9.20;6.83;;;10.90;99.90;;;;;;1894228;75;21098;-81
2022/12/26 12:51:39;;;;;;;8.78;6.60;;;11.00;99.90;;;;;;1894094;75;21487;-79
2022/12/26 12:57:45;;;;;;;8.15;6.20;;;11.20;99.90;;;;;;1946337;72;22168;-80
2022/12/26 13:00:42;;;;;;;9.10;5.97;;;11.30;99.90;;;;;;1939752;73;21183;-80
2022/12/26 13:03:36;;;;;;;8.23;6.08;;;11.40;99.90;;;;;;1917045;75;21090;-79
2022/12/26 13:06:31;;;;;;;7.72;6.25;;;11.40;99.90;;;;;;1930652;73;21082;-79
2022/12/26 13:09:25;;;;;;;6.95;6.15;;;11.50;99.90;;;;;;1941001;73;21159;-80
2022/12/26 13:12:20;;;;;;;9.48;7.20;;;11.70;99.90;;;;;;1917095;75;21171;-80
2022/12/26 13:15:18;;;;;;;10.05;6.50;;;11.70;99.90;;;;;;1916803;75;21237;-80
2022/12/26 13:18:12;;;;;;;9.58;7.47;;;11.80;99.90;;;;;;1936688;73;21050;-81
2022/12/26 13:21:08;;;;;;;9.85;7.12;;;11.70;99.90;;;;;;1931630;73;21133;-79
2022/12/26 13:27:16;;;;;;;8.58;6.58;;;11.70;99.90;;;;;;1916811;75;21107;-79
2022/12/26 13:30:13;;;;;;;9.40;6.78;;;11.60;99.90;;;;;;1917030;75;21106;-81
2022/12/26 13:33:06;;;;;;;9.70;7.30;;;11.80;99.90;;;;;;1940898;73;21090;-79
2022/12/26 13:36:00;;;;;;;10.43;7.42;;;11.90;99.90;;;;;;1931952;73;21713;-81
2022/12/26 13:39:34;;;;;;;8.33;6.95;;;11.90;99.90;;;;;;1930982;73;21200;-79
2022/12/26 13:46:02;;;;;;;9.83;6.67;;;11.90;99.90;;;;;;1916985;75;21055;-80
2022/12/26 13:49:01;;;;;;;10.05;6.83;;;11.90;99.90;;;;;;1935167;73;21517;-79
2022/12/26 13:52:00;;;;;;;11.78;7.97;;;11.90;99.90;;;;;;1916951;75;21066;-80
2022/12/26 13:55:46;;;;;;;12.75;7.75;;;12.00;99.90;;;;;;1940060;73;21101;-79
2022/12/26 14:01:34;;;;;;;8.43;7.50;;;12.00;99.90;;;;;;1956972;72;22511;-81
2022/12/26 14:04:37;;;;;;;8.83;7.15;;;12.00;99.90;;;;;;1895172;75;21605;-79
2022/12/26 14:07:34;;;;;;;8.18;6.20;;;11.90;99.90;;;;;;1895219;75;21182;-80
2022/12/26 14:10:30;;;;;;;7.70;6.70;;;11.90;99.90;;;;;;1895355;75;21130;-78
2022/12/26 14:13:37;;;;;;;9.85;6.35;;;11.80;99.90;;;;;;1897334;75;21545;-78
2022/12/26 14:16:32;;;;;;;10.38;8.35;;;11.80;99.90;;;;;;1902206;75;21108;-79
2022/12/26 14:19:35;;;;;;;8.10;6.83;;;11.90;99.90;;;;;;1903128;75;21128;-79
2022/12/26 14:22:30;;;;;;;8.93;6.78;;;12.00;99.90;;;;;;1895548;75;21151;-79
2022/12/26 14:25:25;;;;;;;8.00;6.47;;;12.00;99.90;;;;;;1895014;75;21139;-81
2022/12/26 14:28:22;;;;;;;7.62;6.50;;;12.10;99.90;;;;;;1894871;75;21609;-79
2022/12/26 14:31:20;;;;;;;14.15;7.58;;;12.10;99.90;;;;;;1916924;75;21102;-79
2022/12/26 14:34:20;;;;;;;8.13;6.65;;;12.10;99.90;;;;;;1901986;75;21592;-80
2022/12/26 14:37:16;;;;;;;7.47;6.78;;;12.10;99.90;;;;;;1898308;75;21098;-80
2022/12/26 14:40:21;;;;;;;9.88;7.12;;;12.10;99.90;;;;;;1884478;75;21087;-79
2022/12/26 14:43:32;;;;;;;8.83;7.33;;;12.10;99.90;;;;;;1884062;75;21137;-80
2022/12/26 14:46:58;;;;;;;10.13;7.45;;;12.10;99.90;;;;;;1891069;75;21102;-79
2022/12/26 14:49:51;;;;;;;9.70;6.85;;;12.20;99.90;;;;;;1894860;75;21488;-80
2022/12/26 14:52:43;;;;;;;8.70;7.30;;;12.20;99.90;;;;;;1890230;75;21177;-79
2022/12/26 14:55:50;;;;;;;9.88;7.20;;;12.20;99.90;;;;;;1905535;75;21080;-79
2022/12/26 14:58:45;;;;;;;8.18;6.92;;;12.10;99.90;;;;;;1904056;75;21176;-79
2022/12/26 15:01:52;;;;;;;7.90;7.05;;;12.10;99.90;;;;;;1911014;74;21122;-79
2022/12/26 15:05:06;;;;;;;9.20;8.15;;;12.00;99.90;;;;;;1914006;74;21090;-80
2022/12/26 15:08:21;;;;;;;10.65;7.85;;;12.00;99.90;;;;;;1901264;74;21101;-79
2022/12/26 15:11:33;;;;;;;12.28;8.40;;;12.00;99.90;;;;;;1912096;74;21572;-79
2022/12/26 15:14:36;;;;;;;10.15;8.08;;;12.00;99.90;;;;;;1911251;74;21139;-80
2022/12/26 15:17:32;;;;;;;9.30;7.72;;;11.90;99.90;;;;;;1923193;74;21102;-80
2022/12/26 15:20:48;;;;;;;12.58;8.05;;;11.80;99.90;;;;;;1921912;74;21230;-79
2022/12/26 15:24:06;;;;;;;9.30;8.03;;;11.80;99.90;;;;;;1921787;74;21065;-80
2022/12/26 15:27:06;;;;;;;10.13;7.72;;;11.70;99.90;;;;;;1904899;74;21126;-79
2022/12/26 15:30:13;;;;;;;11.33;7.20;;;11.70;99.90;;;;;;1910461;74;21067;-78
2022/12/26 15:33:08;;;;;;;9.75;7.83;;;11.70;99.90;;;;;;1910050;74;21089;-79
2022/12/26 15:38:45;;;;;;;9.08;7.45;;;11.90;99.90;;;;;;1955300;72;22193;-81
2022/12/26 15:41:41;;;;;;;9.05;7.95;;;11.80;99.90;;;;;;1889034;74;21109;-81
2022/12/26 15:44:36;;;;;;;11.45;8.50;;;11.80;99.90;;;;;;1884031;75;21090;-78
2022/12/26 15:47:30;;;;;;;11.05;7.78;;;11.70;99.90;;;;;;1904307;75;21159;-79
2022/12/26 15:50:27;;;;;;;10.28;7.78;;;11.70;99.90;;;;;;1900820;75;21106;-79
2022/12/26 15:53:25;;;;;;;12.10;7.72;;;11.70;99.90;;;;;;1895713;75;21110;-79
2022/12/26 15:56:30;;;;;;;9.00;7.53;;;11.60;99.90;;;;;;1894668;75;21047;-78
2022/12/26 15:59:48;;;;;;;10.43;7.67;;;11.50;99.90;;;;;;1889002;75;21224;-78
2022/12/26 16:02:46;;;;;;;10.32;7.47;;;11.50;99.90;;;;;;1883717;75;21216;-79
2022/12/26 16:05:48;;;;;;;12.93;8.20;;;11.50;99.90;;;;;;1909131;75;21095;-80
2022/12/26 16:09:07;;;;;;;11.25;7.95;;;11.50;99.90;;;;;;1916373;75;21083;-80
2022/12/26 16:12:01;;;;;;;11.90;8.30;;;11.40;99.90;;;;;;1885328;75;21452;-80
2022/12/26 16:15:02;;;;;;;11.85;7.67;;;11.40;99.90;;;;;;1898212;75;21149;-78
2022/12/26 16:17:54;;;;;;;9.53;6.90;;;11.40;99.90;;;;;;1889310;75;21201;-79
2022/12/26 16:23:56;;;;;;;9.25;7.05;;;11.30;99.90;;;;;;1883589;75;21157;-80
2022/12/26 16:26:48;;;;;;;10.10;7.85;;;11.30;99.90;;;;;;1905317;75;21585;-80
2022/12/26 16:29:43;;;;;;;11.80;7.72;;;11.30;99.90;;;;;;1905083;75;21043;-80
2022/12/26 16:32:38;;;;;;;11.28;8.55;;;11.30;99.90;;;;;;1900469;75;21109;-79
2022/12/26 16:35:33;;;;;;;11.78;8.03;;;11.30;99.90;;;;;;1896286;75;21593;-78
2022/12/26 16:38:27;;;;;;;10.60;7.67;;;11.30;99.90;;;;;;1899864;74;21546;-79
2022/12/26 16:41:23;;;;;;;10.18;7.90;;;11.30;99.90;;;;;;1926384;74;21038;-79
2022/12/26 16:44:29;;;;;;;10.80;8.50;;;11.30;99.90;;;;;;1905316;74;21070;-79
2022/12/26 16:47:20;;;;;;;14.18;8.38;;;11.30;99.90;;;;;;1912849;74;21106;-79
2022/12/26 16:50:17;;;;;;;10.60;7.95;;;11.30;99.90;;;;;;1892798;74;21235;-79
2022/12/26 16:53:14;;;;;;;11.10;7.20;;;11.30;99.90;;;;;;1915058;74;21098;-80
2022/12/26 16:56:23;;;;;;;10.08;7.22;;;11.30;99.90;;;;;;1915269;74;21098;-80
2022/12/26 16:59:17;;;;;;;9.30;6.97;;;11.30;99.90;;;;;;1914842;74;21105;-80
2022/12/26 17:02:20;;;;;;;8.78;6.22;;;11.30;99.90;;;;;;1915171;74;21086;-79
2022/12/26 17:05:19;;;;;;;12.53;7.08;;;11.30;99.90;;;;;;1876631;76;21186;-80
2022/12/26 17:08:13;;;;;;;8.45;6.67;;;11.30;99.90;;;;;;1915791;74;21077;-80
2022/12/26 17:11:04;;;;;;;9.93;6.97;;;11.30;99.90;;;;;;1931945;74;21141;-79
2022/12/26 17:13:57;;;;;;;9.95;7.53;;;11.20;99.90;;;;;;1909750;74;21167;-79
2022/12/26 17:16:50;;;;;;;7.12;6.30;;;11.20;99.90;;;;;;1931675;74;21153;-79
2022/12/26 17:19:41;;;;;;;10.58;7.40;;;11.20;99.90;;;;;;1917622;74;21110;-79
2022/12/26 17:22:36;;;;;;;7.92;6.53;;;11.30;99.90;;;;;;1913008;74;21179;-79
2022/12/26 17:25:32;;;;;;;9.05;6.97;;;11.30;99.90;;;;;;1923669;74;21134;-80
2022/12/26 17:28:28;;;;;;;8.63;6.70;;;11.30;99.90;;;;;;1921334;74;21584;-81
2022/12/26 17:31:24;;;;;;;8.83;6.50;;;11.30;99.90;;;;;;1921645;74;21054;-80
2022/12/26 17:34:19;;;;;;;8.28;6.37;;;11.30;99.90;;;;;;1907197;74;21046;-80
2022/12/26 17:37:17;;;;;;;7.50;5.87;;;11.30;99.90;;;;;;1912535;74;21678;-80
2022/12/26 17:40:21;;;;;;;9.68;7.40;;;11.30;99.90;;;;;;1910618;74;21144;-80
2022/12/26 17:43:23;;;;;;;11.00;7.60;;;11.30;99.90;;;;;;1909875;74;21215;-80
2022/12/26 17:46:16;;;;;;;9.90;7.30;;;11.20;99.90;;;;;;1910454;74;21105;-79
2022/12/26 17:49:08;;;;;;;13.38;8.15;;;11.10;99.90;;;;;;1910133;74;21122;-80
2022/12/26 17:51:59;;;;;;;11.80;8.03;;;11.10;99.90;;;;;;1915081;74;21116;-79
2022/12/26 17:54:53;;;;;;;9.55;7.47;;;11.00;99.90;;;;;;1899357;75;21113;-78
2022/12/26 17:57:44;;;;;;;11.93;8.38;;;11.00;99.90;;;;;;1921720;74;21107;-78
2022/12/26 18:00:36;;;;;;;9.15;6.83;;;11.00;99.90;;;;;;1921747;74;21098;-81